CheckWX is a tool to help pilots better visualize weather data.  It is not intended as a substitute for an official pre-flight weather briefing.

16:35:56 UTC

GQPP TAF
Nouadhibou International Airport
Nouadhibou, Mauritania
TAF GQPP 141100Z 1412/1512 04010KT 8000 NSC BECMG 1415/1418 34012KT

Dec-14@
12:00 UTC

Dec-14 @ 12:00 UTC

Dec-14@
15:00 UTC

Dec-14 @ 15:00 UTC

TAF GQPP 141100Z 1412/1512 04010KT 8000 NSC

Expired

Wind
  • 040° at 10 KTS
Cloud Levels
  • No significant clouds

Dec-14@
15:00 UTC

Dec-14 @ 15:00 UTC

Dec-15@
12:00 UTC

Dec-15 @ 12:00 UTC

BECMG 1415/1418 34012KT

Becoming

Becoming Conditions expected by Sat, Dec 14, 2019 @ 18:00 UTC

Wind
  • 340° at 12 KTS
Cloud Levels
  • No significant clouds